Stations météo

Publicité
Drumnadrochit, Grande-Bretagne (99132): Température de l'air & dewpoint: 15.01.2018 14:00:00 - 21.01.2018 14:00:00 (GMT)Drumnadrochit, Grande-Bretagne (99132): Quantités de précipitations: 15.01.2018 14:00:00 - 21.01.2018 14:00:00 (GMT)
Date & Time tt [°C] td [°C] rr [mm]
21.01.2018 14:00:00 1,7 -2,3 0,4
21.01.2018 13:00:00 2,1 -4,0 0,0
21.01.2018 12:00:00 2,5 -4,1 0,0
21.01.2018 11:00:00 -3,0 -3,2 0,0
21.01.2018 10:00:00 -4,5 -4,9 0,0
21.01.2018 09:00:00 -5,7 -6,2 0,0
21.01.2018 08:00:00 -7,3 -7,8 0,0
21.01.2018 07:00:00 -9,5 -10,7 0,0
21.01.2018 06:00:00 -7,7 -8,5 0,0
21.01.2018 05:00:00 -7,8 -8,6 0,0
21.01.2018 04:00:00 -8,7 -9,5 0,0
21.01.2018 03:00:00 -9,4 -10,2 0,0
21.01.2018 02:00:00 -9,8 -10,7 0,0
21.01.2018 01:00:00 -9,0 -9,9 0,0
21.01.2018 00:00:00 -10,1 -11,1 0,0
20.01.2018 23:00:00 -10,2 -11,0 0,0
20.01.2018 22:00:00 -9,7 -10,5 0,0
20.01.2018 21:00:00 -10,4 -11,6 0,0
20.01.2018 20:00:00 -9,7 -10,7 0,0
20.01.2018 19:00:00 -9,3 -10,2 0,0
20.01.2018 18:00:00 -8,6 -9,5 -
20.01.2018 17:00:00 -8,6 -10,1 0,0
20.01.2018 16:00:00 -5,8 -6,6 0,2
20.01.2018 15:00:00 -2,7 -4,2 0,4
20.01.2018 14:00:00 -2,6 -4,5 0,8
20.01.2018 13:00:00 -3,1 -3,7 0,0
20.01.2018 12:00:00 -4,2 -4,6 0,0
20.01.2018 11:00:00 -6,1 -6,4 0,0
20.01.2018 10:00:00 -8,0 -8,5 0,0
20.01.2018 09:00:00 -9,7 -10,7 0,0
20.01.2018 08:00:00 -9,1 -10,1 0,0
20.01.2018 07:00:00 -7,9 -8,6 0,0
20.01.2018 06:00:00 -8,5 -9,6 0,0
20.01.2018 05:00:00 -6,5 -7,1 0,0
20.01.2018 04:00:00 -5,7 -6,0 0,0
20.01.2018 03:00:00 -7,6 -8,3 0,0
20.01.2018 02:00:00 -6,9 -7,9 0,0
20.01.2018 01:00:00 -4,5 -4,6 0,0
20.01.2018 00:00:00 -5,2 -5,6 0,0
19.01.2018 23:00:00 -5,8 -6,3 0,0
19.01.2018 22:00:00 -5,7 -6,3 0,0
19.01.2018 21:00:00 -3,9 -3,9 0,0
19.01.2018 20:00:00 -6,0 -6,8 0,0
19.01.2018 19:00:00 -4,4 -5,0 0,0
19.01.2018 18:00:00 -2,3 -4,1 0,0
19.01.2018 17:00:00 0,2 -2,1 0,0
19.01.2018 16:00:00 0,7 -1,2 0,2
19.01.2018 15:00:00 0,7 -1,9 1,0
19.01.2018 14:00:00 1,2 -2,0 1,0
19.01.2018 13:00:00 1,1 -1,4 0,4
19.01.2018 12:00:00 1,1 -1,3 1,0
19.01.2018 11:00:00 1,4 -0,4 0,0
19.01.2018 10:00:00 -2,2 -2,4 0,0
19.01.2018 09:00:00 -4,7 -5,3 0,0
19.01.2018 08:00:00 -4,4 -4,7 0,0
19.01.2018 07:00:00 -4,4 -4,7 0,0
19.01.2018 06:00:00 -3,9 -4,8 0,0
19.01.2018 05:00:00 -2,2 -2,7 0,0
19.01.2018 04:00:00 0,4 -0,4 0,0
19.01.2018 03:00:00 -3,0 -3,2 0,0
19.01.2018 02:00:00 -3,1 -3,3 0,0
19.01.2018 01:00:00 0,0 0,0 0,0
19.01.2018 00:00:00 -5,8 -6,0 0,0
18.01.2018 23:00:00 -4,5 -5,1 0,0
18.01.2018 22:00:00 -4,8 -5,0 0,0
18.01.2018 21:00:00 -6,5 -7,3 0,0
18.01.2018 20:00:00 -5,0 -5,4 0,0
18.01.2018 19:00:00 -5,7 -6,4 0,0
18.01.2018 18:00:00 -3,6 -3,7 0,0
18.01.2018 17:00:00 -6,1 -6,9 0,0
18.01.2018 16:00:00 -3,8 -4,5 0,0
18.01.2018 15:00:00 -3,0 -3,5 0,0
18.01.2018 14:00:00 -1,6 -1,8 0,0
18.01.2018 13:00:00 -1,9 -2,1 0,0
18.01.2018 12:00:00 -2,3 -2,4 0,0
18.01.2018 11:00:00 -5,2 -5,8 0,0
18.01.2018 10:00:00 -4,3 -4,5 0,0
18.01.2018 09:00:00 -5,0 -5,2 0,0
18.01.2018 08:00:00 -5,8 -6,3 0,0
18.01.2018 07:00:00 -4,7 -5,2 0,0
18.01.2018 06:00:00 -3,9 -4,0 0,0
18.01.2018 05:00:00 -5,5 -6,2 0,0
18.01.2018 04:00:00 -4,2 -4,2 0,0
18.01.2018 03:00:00 -5,2 -5,6 0,0
18.01.2018 02:00:00 -5,3 -5,7 0,0
18.01.2018 01:00:00 -5,5 -6,1 0,0
18.01.2018 00:00:00 -5,4 -5,9 0,0
17.01.2018 23:00:00 -4,6 -5,2 0,0
17.01.2018 22:00:00 -4,3 -5,2 0,0
17.01.2018 21:00:00 -1,9 -2,1 0,0
17.01.2018 20:00:00 -0,9 -1,3 0,0
17.01.2018 19:00:00 -0,1 -0,7 0,0
17.01.2018 18:00:00 1,7 -0,6 0,4
17.01.2018 17:00:00 1,9 0,0 0,0
17.01.2018 16:00:00 0,2 0,1 0,8
17.01.2018 15:00:00 0,2 0,0 0,0
17.01.2018 14:00:00 1,3 -0,1 0,2
17.01.2018 13:00:00 1,9 0,3 0,0
17.01.2018 12:00:00 1,6 0,1 0,0
17.01.2018 11:00:00 1,8 0,0 0,0
17.01.2018 10:00:00 2,3 -0,9 0,0
17.01.2018 09:00:00 1,6 -1,1 0,0
17.01.2018 08:00:00 1,2 -0,3 0,0
17.01.2018 07:00:00 0,9 -1,8 0,0
17.01.2018 06:00:00 0,5 -0,4 0,0
17.01.2018 05:00:00 0,1 -0,4 0,0
17.01.2018 04:00:00 0,1 0,0 0,0
17.01.2018 03:00:00 -2,6 -2,6 0,0
17.01.2018 02:00:00 -4,0 -4,3 0,0
17.01.2018 01:00:00 -3,5 -4,5 0,0
17.01.2018 00:00:00 -1,5 -2,6 0,0
16.01.2018 23:00:00 -2,1 -2,7 0,0
16.01.2018 22:00:00 -1,3 -1,4 0,0
16.01.2018 21:00:00 -3,4 -4,7 0,0
16.01.2018 20:00:00 -2,1 -2,5 0,0
16.01.2018 19:00:00 -1,3 -1,3 0,0
16.01.2018 18:00:00 -1,9 -2,4 0,0
16.01.2018 17:00:00 -1,1 -1,7 0,0
16.01.2018 16:00:00 -2,2 -3,4 0,0
16.01.2018 15:00:00 -0,7 -1,2 0,2
16.01.2018 14:00:00 -0,2 -1,0 0,0
16.01.2018 13:00:00 -0,2 -0,8 0,0
16.01.2018 12:00:00 0,1 -1,0 0,0
16.01.2018 11:00:00 0,5 -1,1 0,0
16.01.2018 10:00:00 0,1 -0,6 0,0
16.01.2018 09:00:00 0,1 -0,6 0,0
16.01.2018 08:00:00 0,1 -0,1 0,0
16.01.2018 07:00:00 0,4 0,0 0,0
16.01.2018 06:00:00 0,1 -0,7 0,0
16.01.2018 05:00:00 -0,1 -2,5 0,0
16.01.2018 04:00:00 0,6 -1,0 0,0
16.01.2018 03:00:00 0,2 -0,8 0,0
16.01.2018 02:00:00 0,4 -1,0 0,0
16.01.2018 01:00:00 0,1 -2,0 0,0
16.01.2018 00:00:00 0,4 -0,7 0,0
15.01.2018 23:00:00 1,0 -0,6 0,0
15.01.2018 22:00:00 1,3 -0,1 0,2
15.01.2018 21:00:00 1,1 0,2 0,2
15.01.2018 20:00:00 1,5 0,4 0,2
15.01.2018 19:00:00 1,7 0,2 0,2
15.01.2018 18:00:00 1,4 0,6 0,6
15.01.2018 17:00:00 2,0 0,9 0,4
15.01.2018 16:00:00 1,8 0,8 0,8
15.01.2018 15:00:00 2,5 1,1 0,4
15.01.2018 14:00:00 3,2 1,3 0,2

tt = Température de l'air
td = dewpoint
rr = Quantités de précipitations

stations d'obs. à proximité